Time;durP1;ratioP1;P1;durP2;ratioP2;P2;SDS_P1;SDS_P2;PMS_P1;PMS_P2;Temp;Humidity;BMP_temperature;BMP_pressure;BME280_temperature;BME280_humidity;BME280_pressure;Samples;Min_cycle;Max_cycle;Signal;HPM_P1;HPM_P2
2024/02/01 00:00:35;;;;;;;7.18;4.13;;;8.70;99.90;;;;;;4158571;28;20084;-80
2024/02/01 00:02:36;;;;;;;8.05;3.90;;;8.80;99.90;;;;;;4141953;28;20045;-81
2024/02/01 00:04:36;;;;;;;7.07;3.90;;;8.70;99.90;;;;;;4159328;28;20502;-78
2024/02/01 00:06:37;;;;;;;8.68;4.03;;;8.80;99.90;;;;;;4156093;28;20564;-79
2024/02/01 00:08:37;;;;;;;9.57;4.18;;;8.80;99.90;;;;;;4155976;28;20414;-81
2024/02/01 00:10:38;;;;;;;7.38;4.07;;;8.80;99.90;;;;;;4157316;28;20042;-80
2024/02/01 00:12:38;;;;;;;11.30;4.80;;;8.90;99.90;;;;;;4138611;28;20041;-80
2024/02/01 00:14:39;;;;;;;9.18;4.50;;;8.90;99.90;;;;;;4157171;28;20022;-73
2024/02/01 00:16:40;;;;;;;7.80;4.30;;;8.90;99.90;;;;;;4152323;28;20038;-74
2024/02/01 00:18:41;;;;;;;7.03;4.38;;;8.80;99.90;;;;;;4141093;28;20121;-74
2024/02/01 00:20:42;;;;;;;11.85;4.72;;;8.80;99.90;;;;;;4139811;28;20069;-73
2024/02/01 00:22:43;;;;;;;8.52;3.88;;;8.80;99.90;;;;;;4156900;28;20044;-72
2024/02/01 00:24:43;;;;;;;8.15;4.13;;;8.90;99.90;;;;;;4156447;28;20550;-72
2024/02/01 00:26:44;;;;;;;9.27;4.43;;;8.90;99.90;;;;;;4138535;28;20484;-73
2024/02/01 00:28:44;;;;;;;11.13;5.25;;;8.80;99.90;;;;;;4139236;28;20030;-73
2024/02/01 00:30:45;;;;;;;10.38;4.93;;;8.80;99.90;;;;;;4158820;28;20028;-74
2024/02/01 00:32:46;;;;;;;9.88;4.75;;;8.80;99.90;;;;;;4141767;28;20026;-74
2024/02/01 00:34:46;;;;;;;11.00;4.88;;;8.80;99.90;;;;;;4159641;28;20030;-75
2024/02/01 00:36:47;;;;;;;13.45;4.38;;;8.80;99.90;;;;;;4157928;28;20029;-74
2024/02/01 00:38:48;;;;;;;11.35;3.90;;;8.90;99.90;;;;;;4157666;28;20434;-74
2024/02/01 00:40:48;;;;;;;10.63;4.78;;;8.80;99.90;;;;;;4158637;28;20029;-77
2024/02/01 00:42:49;;;;;;;8.48;4.43;;;8.80;99.90;;;;;;4123929;28;20034;-76
2024/02/01 00:44:49;;;;;;;11.00;5.03;;;8.80;99.90;;;;;;4125463;28;20053;-76
2024/02/01 00:46:50;;;;;;;7.30;4.38;;;8.80;99.90;;;;;;4138693;28;20664;-76
2024/02/01 00:48:51;;;;;;;7.47;4.00;;;8.80;99.90;;;;;;4139326;28;20500;-76
2024/02/01 00:50:51;;;;;;;12.75;5.50;;;8.80;99.90;;;;;;4158182;28;20116;-77
2024/02/01 00:52:52;;;;;;;11.85;4.43;;;8.80;99.90;;;;;;4157655;28;20038;-77
2024/02/01 00:54:52;;;;;;;8.25;3.88;;;8.70;99.90;;;;;;4141851;28;20484;-77
2024/02/01 00:56:53;;;;;;;7.15;4.13;;;8.80;99.90;;;;;;4139191;28;20485;-76
2024/02/01 00:58:54;;;;;;;8.57;3.72;;;8.80;99.90;;;;;;4156170;28;20052;-77
2024/02/01 01:00:54;;;;;;;10.68;4.55;;;8.70;99.90;;;;;;4158603;28;20021;-77
2024/02/01 01:02:55;;;;;;;12.10;4.90;;;8.70;99.90;;;;;;4152723;28;20045;-77
2024/02/01 01:04:55;;;;;;;8.35;4.63;;;8.70;99.90;;;;;;4159161;28;20025;-78
2024/02/01 01:06:56;;;;;;;9.63;4.03;;;8.70;99.90;;;;;;4156664;28;20026;-77
2024/02/01 01:08:57;;;;;;;8.18;4.05;;;8.70;99.90;;;;;;4157745;28;20096;-77
2024/02/01 01:10:57;;;;;;;9.05;4.63;;;8.70;99.90;;;;;;4158569;28;20032;-77
2024/02/01 01:12:58;;;;;;;9.63;4.45;;;8.70;99.90;;;;;;4141261;28;20084;-77
2024/02/01 01:14:58;;;;;;;8.77;4.10;;;8.70;99.90;;;;;;4158903;28;20030;-77
2024/02/01 01:16:59;;;;;;;10.07;4.07;;;8.70;99.90;;;;;;4157424;28;20495;-77
2024/02/01 01:19:00;;;;;;;9.63;4.10;;;8.70;99.90;;;;;;4158470;28;20041;-77
2024/02/01 01:21:00;;;;;;;10.20;4.20;;;8.70;99.90;;;;;;4158026;28;20029;-77
2024/02/01 01:23:01;;;;;;;7.25;4.25;;;8.70;99.90;;;;;;4157290;28;20390;-76
2024/02/01 01:25:02;;;;;;;6.22;3.88;;;8.70;99.90;;;;;;4125302;28;20031;-86
2024/02/01 01:27:03;;;;;;;10.65;4.40;;;8.70;99.90;;;;;;4140423;28;20038;-82
2024/02/01 01:29:04;;;;;;;8.85;4.95;;;8.70;99.90;;;;;;4141814;28;20092;-85
2024/02/01 01:31:04;;;;;;;6.63;4.13;;;8.70;99.90;;;;;;4159541;28;20499;-85
2024/02/01 01:33:05;;;;;;;6.60;3.80;;;8.70;99.90;;;;;;4159139;28;20486;-86
2024/02/01 01:35:06;;;;;;;8.57;4.13;;;8.70;99.90;;;;;;4159302;28;20105;-83
2024/02/01 01:37:06;;;;;;;9.57;4.45;;;8.70;99.90;;;;;;4158109;28;20502;-85
2024/02/01 01:39:09;;;;;;;6.80;3.75;;;8.70;99.90;;;;;;4141820;28;20049;-86
2024/02/01 01:41:09;;;;;;;10.02;4.50;;;8.70;99.90;;;;;;4140239;28;20053;-84
2024/02/01 01:43:10;;;;;;;7.60;4.00;;;8.70;99.90;;;;;;4159715;28;20049;-84
2024/02/01 01:45:11;;;;;;;7.10;3.63;;;8.70;99.90;;;;;;4137425;28;20495;-77
2024/02/01 01:47:12;;;;;;;6.90;3.83;;;8.70;99.90;;;;;;4139137;28;20161;-78
2024/02/01 01:49:16;;;;;;;9.82;4.07;;;8.70;99.90;;;;;;4158147;28;20026;-78
2024/02/01 01:51:17;;;;;;;12.10;4.63;;;8.70;99.90;;;;;;4140673;28;20081;-78
2024/02/01 01:53:18;;;;;;;11.07;4.10;;;8.70;99.90;;;;;;4135047;28;20141;-78
2024/02/01 01:55:19;;;;;;;9.98;4.03;;;8.70;99.90;;;;;;4158236;28;20100;-78
2024/02/01 01:57:19;;;;;;;10.88;4.22;;;8.70;99.90;;;;;;4156318;28;20034;-78
2024/02/01 01:59:22;;;;;;;6.95;3.75;;;8.70;99.90;;;;;;4140024;28;20037;-77
2024/02/01 02:01:24;;;;;;;7.32;4.32;;;8.70;99.90;;;;;;4158179;28;20090;-78
2024/02/01 02:03:29;;;;;;;8.73;4.18;;;8.70;99.90;;;;;;4140772;28;20038;-79
2024/02/01 02:05:30;;;;;;;7.78;4.20;;;8.70;99.90;;;;;;4157872;28;20095;-78
2024/02/01 02:07:30;;;;;;;6.45;3.40;;;8.70;99.90;;;;;;4139038;28;20995;-79
2024/02/01 02:09:31;;;;;;;9.55;3.90;;;8.70;99.90;;;;;;4140081;28;20037;-78
2024/02/01 02:11:32;;;;;;;7.45;3.78;;;8.80;99.90;;;;;;4123659;28;20111;-78
2024/02/01 02:13:32;;;;;;;7.43;3.60;;;8.80;99.90;;;;;;4136826;28;20038;-78
2024/02/01 02:15:33;;;;;;;8.77;4.38;;;8.80;99.90;;;;;;4156297;28;20030;-78
2024/02/01 02:17:34;;;;;;;5.68;3.60;;;8.80;99.90;;;;;;4156395;28;20120;-78
2024/02/01 02:19:35;;;;;;;9.77;4.88;;;8.80;99.90;;;;;;4157425;28;20384;-78
2024/02/01 02:21:48;;;;;;;5.30;3.45;;;8.80;99.90;;;;;;4143574;28;20380;-77
2024/02/01 02:23:50;;;;;;;8.25;3.88;;;8.80;99.90;;;;;;4160086;28;20033;-77
2024/02/01 02:25:50;;;;;;;8.10;4.55;;;8.80;99.90;;;;;;4161074;28;20037;-77
2024/02/01 02:27:51;;;;;;;6.68;4.10;;;8.80;99.90;;;;;;4141758;28;20578;-78
2024/02/01 02:29:52;;;;;;;10.35;4.47;;;8.80;99.90;;;;;;4142161;28;20583;-77
2024/02/01 02:31:52;;;;;;;6.45;3.53;;;8.80;99.90;;;;;;4159940;28;20029;-78
2024/02/01 02:33:53;;;;;;;8.50;4.28;;;8.80;99.90;;;;;;4159161;28;20104;-78
2024/02/01 02:35:53;;;;;;;5.55;3.67;;;8.80;99.90;;;;;;4143383;28;20467;-78
2024/02/01 02:37:54;;;;;;;5.65;3.75;;;8.80;99.90;;;;;;4142787;28;20184;-79
2024/02/01 02:39:54;;;;;;;5.90;4.03;;;8.80;99.90;;;;;;4159996;28;20113;-78
2024/02/01 02:41:55;;;;;;;5.75;3.85;;;8.80;99.90;;;;;;4142737;28;20434;-78
2024/02/01 02:43:57;;;;;;;6.00;3.58;;;8.80;99.90;;;;;;4159080;28;20033;-78
2024/02/01 02:45:57;;;;;;;7.07;4.15;;;8.80;99.90;;;;;;4148668;28;20033;-78
2024/02/01 02:47:58;;;;;;;8.05;4.03;;;8.80;99.90;;;;;;4141869;28;20349;-79
2024/02/01 02:49:58;;;;;;;6.50;3.75;;;8.80;99.90;;;;;;4158966;28;20155;-79
2024/02/01 02:51:59;;;;;;;5.82;4.07;;;8.80;99.90;;;;;;4142736;28;20026;-80
2024/02/01 02:54:00;;;;;;;6.82;4.10;;;8.80;99.90;;;;;;4142629;28;20034;-79
2024/02/01 02:56:00;;;;;;;8.15;4.70;;;8.80;99.90;;;;;;4147725;28;20060;-80
2024/02/01 02:58:01;;;;;;;6.43;3.95;;;8.80;99.90;;;;;;4142000;28;20049;-79
2024/02/01 03:00:05;;;;;;;6.70;4.30;;;8.80;99.90;;;;;;4143085;28;20110;-79
2024/02/01 03:02:06;;;;;;;6.43;4.20;;;8.90;99.90;;;;;;4158890;28;20038;-80
2024/02/01 03:04:08;;;;;;;5.72;3.40;;;8.90;99.90;;;;;;4158821;28;20053;-80
2024/02/01 03:06:09;;;;;;;8.43;4.25;;;8.90;99.90;;;;;;4158918;28;20034;-80
2024/02/01 03:08:11;;;;;;;5.43;3.95;;;8.90;99.90;;;;;;4157369;28;20049;-79
2024/02/01 03:10:12;;;;;;;8.07;3.73;;;8.90;99.90;;;;;;4142367;28;20092;-79
2024/02/01 03:12:13;;;;;;;5.75;3.67;;;8.90;99.90;;;;;;4143102;28;20030;-79
2024/02/01 03:14:14;;;;;;;5.00;3.78;;;8.90;99.90;;;;;;4142880;28;20116;-79
2024/02/01 03:16:19;;;;;;;4.70;3.53;;;9.00;99.90;;;;;;4160053;28;20483;-80
2024/02/01 03:18:19;;;;;;;7.03;3.70;;;9.00;99.90;;;;;;4157226;28;20045;-78
2024/02/01 03:20:23;;;;;;;6.75;4.10;;;9.00;99.90;;;;;;4159698;28;20037;-79
2024/02/01 03:22:24;;;;;;;4.97;3.67;;;9.00;99.90;;;;;;4142661;28;20097;-79
2024/02/01 03:24:25;;;;;;;4.30;3.45;;;9.00;99.90;;;;;;4159562;28;20041;-79
2024/02/01 03:26:26;;;;;;;5.78;3.60;;;9.00;99.90;;;;;;4142242;28;20053;-79
2024/02/01 03:28:30;;;;;;;5.22;4.03;;;9.00;99.90;;;;;;4140053;28;20077;-79
2024/02/01 03:30:33;;;;;;;6.90;4.20;;;9.10;99.90;;;;;;4123900;28;20455;-80
2024/02/01 03:32:36;;;;;;;6.70;4.07;;;9.00;99.90;;;;;;4149330;28;20121;-79
2024/02/01 03:34:37;;;;;;;6.97;4.15;;;9.00;99.90;;;;;;4141793;28;20038;-80
2024/02/01 03:36:38;;;;;;;7.40;4.13;;;9.00;99.90;;;;;;4158662;28;20033;-80
2024/02/01 03:38:42;;;;;;;5.35;4.05;;;9.10;99.90;;;;;;4140878;28;20719;-80
2024/02/01 03:40:43;;;;;;;7.55;4.40;;;9.10;99.90;;;;;;4159412;28;20491;-79
2024/02/01 03:42:47;;;;;;;5.45;3.67;;;9.10;99.90;;;;;;4158704;28;20049;-80
2024/02/01 03:44:47;;;;;;;5.03;3.70;;;9.10;99.90;;;;;;4142043;28;20038;-80
2024/02/01 03:46:51;;;;;;;6.50;3.75;;;9.10;99.90;;;;;;4156987;28;20102;-80
2024/02/01 03:48:51;;;;;;;8.15;5.45;;;9.10;99.90;;;;;;4157793;28;20519;-80
2024/02/01 03:50:52;;;;;;;6.75;4.30;;;9.10;99.90;;;;;;4142144;28;20053;-79
2024/02/01 03:52:53;;;;;;;6.43;3.80;;;9.10;99.90;;;;;;4159793;28;20725;-80
2024/02/01 03:54:54;;;;;;;8.60;4.22;;;9.10;99.90;;;;;;4142289;28;20034;-81
2024/02/01 03:56:54;;;;;;;6.95;4.20;;;9.10;99.90;;;;;;4137959;28;20047;-80
2024/02/01 03:58:55;;;;;;;6.65;4.25;;;9.10;99.90;;;;;;4140863;28;20065;-80
2024/02/01 04:00:56;;;;;;;6.10;4.18;;;9.20;99.90;;;;;;4158415;28;20022;-79
2024/02/01 04:02:58;;;;;;;5.28;3.72;;;9.10;99.90;;;;;;4141585;28;20045;-80
2024/02/01 04:04:59;;;;;;;7.20;4.82;;;9.20;99.90;;;;;;4159812;28;20360;-81
2024/02/01 04:06:59;;;;;;;4.88;4.05;;;9.20;99.90;;;;;;4157367;28;20068;-76
2024/02/01 04:09:00;;;;;;;4.20;3.22;;;9.20;99.90;;;;;;4124007;28;20039;-77
2024/02/01 04:11:01;;;;;;;5.32;4.18;;;9.20;99.90;;;;;;4141340;28;20065;-76
2024/02/01 04:13:05;;;;;;;6.53;4.03;;;9.20;99.90;;;;;;4157485;28;20106;-76
2024/02/01 04:15:06;;;;;;;6.85;4.05;;;9.30;99.90;;;;;;4139820;28;20124;-76
2024/02/01 04:17:07;;;;;;;4.70;3.47;;;9.20;99.90;;;;;;4158793;28;20034;-81
2024/02/01 04:19:07;;;;;;;6.72;4.43;;;9.30;99.90;;;;;;4140329;28;20472;-83
2024/02/01 04:21:10;;;;;;;6.13;4.00;;;9.30;99.90;;;;;;4154724;28;20419;-82
2024/02/01 04:23:12;;;;;;;6.97;4.07;;;9.30;99.90;;;;;;4153272;28;20042;-81
2024/02/01 04:25:12;;;;;;;5.18;3.53;;;9.30;99.90;;;;;;4155584;28;20041;-82
2024/02/01 04:27:13;;;;;;;5.65;4.07;;;9.30;99.90;;;;;;4155804;28;20479;-82
2024/02/01 04:29:14;;;;;;;6.32;4.20;;;9.40;99.90;;;;;;4154790;28;20029;-82
2024/02/01 04:31:15;;;;;;;7.43;4.07;;;9.40;99.90;;;;;;4156762;28;20117;-82
2024/02/01 04:33:19;;;;;;;4.82;3.88;;;9.30;99.90;;;;;;4140248;28;20034;-83
2024/02/01 04:35:19;;;;;;;6.88;4.20;;;9.30;99.90;;;;;;4146018;28;20146;-83
2024/02/01 04:37:20;;;;;;;5.53;3.88;;;9.40;99.90;;;;;;4143783;28;20466;-81
2024/02/01 04:39:21;;;;;;;5.32;4.13;;;9.40;99.90;;;;;;4153931;28;20399;-82
2024/02/01 04:41:22;;;;;;;5.35;4.13;;;9.40;99.90;;;;;;4155991;28;20040;-83
2024/02/01 04:43:23;;;;;;;5.30;3.95;;;9.40;99.90;;;;;;4151117;28;20045;-82
2024/02/01 04:45:24;;;;;;;5.78;4.18;;;9.40;99.90;;;;;;4152377;28;20034;-83
2024/02/01 04:47:25;;;;;;;4.72;4.00;;;9.40;99.90;;;;;;4157411;28;20041;-83
2024/02/01 04:49:28;;;;;;;4.95;4.10;;;9.40;99.90;;;;;;4138944;28;20458;-85
2024/02/01 04:51:30;;;;;;;5.68;4.20;;;9.40;99.90;;;;;;4154320;28;20041;-85
2024/02/01 04:53:31;;;;;;;5.43;4.03;;;9.40;99.90;;;;;;4155078;28;20380;-83
2024/02/01 04:55:32;;;;;;;5.40;4.53;;;9.40;99.90;;;;;;4149384;28;20090;-84
2024/02/01 04:57:32;;;;;;;6.95;4.60;;;9.40;99.90;;;;;;4139307;28;20085;-84
2024/02/01 04:59:33;;;;;;;7.88;4.32;;;9.40;99.90;;;;;;4154119;28;20033;-83
2024/02/01 05:01:33;;;;;;;6.90;4.40;;;9.40;99.90;;;;;;4137425;28;20053;-83
2024/02/01 05:03:34;;;;;;;7.68;4.72;;;9.50;99.90;;;;;;4138585;28;20045;-84
2024/02/01 05:05:36;;;;;;;5.82;3.72;;;9.50;99.90;;;;;;4154971;28;20095;-84
2024/02/01 05:07:36;;;;;;;8.30;5.20;;;9.40;99.90;;;;;;4151032;28;20040;-84
2024/02/01 05:09:39;;;;;;;5.93;4.40;;;9.50;99.90;;;;;;4155101;28;20041;-84
2024/02/01 05:11:39;;;;;;;7.32;5.30;;;9.50;99.90;;;;;;4140218;28;20061;-85
2024/02/01 05:13:40;;;;;;;7.95;5.20;;;9.50;99.90;;;;;;4156009;28;20037;-84
2024/02/01 05:15:45;;;;;;;8.05;5.40;;;9.50;99.90;;;;;;4153123;28;20041;-83
2024/02/01 05:17:46;;;;;;;15.60;5.90;;;9.50;99.90;;;;;;4153757;28;20041;-83
2024/02/01 05:19:47;;;;;;;10.32;5.47;;;9.50;99.90;;;;;;4154432;28;20029;-83
2024/02/01 05:21:47;;;;;;;8.93;5.85;;;9.50;99.90;;;;;;4154712;28;20091;-83
2024/02/01 05:23:50;;;;;;;8.60;5.82;;;9.50;99.90;;;;;;4158542;28;20403;-84
2024/02/01 05:25:50;;;;;;;9.02;5.97;;;9.50;99.90;;;;;;4139637;28;20034;-84
2024/02/01 05:27:51;;;;;;;12.80;6.38;;;9.50;99.90;;;;;;4153963;28;20408;-81
2024/02/01 05:29:52;;;;;;;11.75;6.75;;;9.50;99.90;;;;;;4157650;28;20026;-83
2024/02/01 05:31:55;;;;;;;9.00;6.20;;;9.40;99.90;;;;;;4154534;28;20037;-84
2024/02/01 05:33:55;;;;;;;11.30;7.18;;;9.40;99.90;;;;;;4139352;28;20033;-83
2024/02/01 05:35:56;;;;;;;12.07;6.15;;;9.40;99.90;;;;;;4157655;28;20068;-84
2024/02/01 05:38:00;;;;;;;13.57;7.13;;;9.40;99.90;;;;;;4140182;28;20096;-84
2024/02/01 05:40:00;;;;;;;8.75;5.25;;;9.40;99.90;;;;;;4155503;28;20124;-84
2024/02/01 05:42:06;;;;;;;16.08;6.10;;;9.30;99.90;;;;;;4139956;28;20034;-83
2024/02/01 05:44:11;;;;;;;21.27;6.40;;;9.30;99.90;;;;;;4140233;28;20546;-81
2024/02/01 05:46:14;;;;;;;14.38;6.43;;;9.30;99.90;;;;;;4136267;28;20038;-82
2024/02/01 05:48:15;;;;;;;17.05;6.97;;;9.30;99.90;;;;;;4139534;28;20042;-81
2024/02/01 05:50:15;;;;;;;10.88;5.28;;;9.30;99.90;;;;;;4140102;28;20585;-82
2024/02/01 05:52:16;;;;;;;17.55;5.63;;;9.30;99.90;;;;;;4158661;28;20030;-82
2024/02/01 05:54:19;;;;;;;18.80;5.45;;;9.30;99.90;;;;;;4156708;28;20033;-80
2024/02/01 05:56:20;;;;;;;13.70;5.63;;;9.30;99.90;;;;;;4157764;28;20033;-82
2024/02/01 05:58:21;;;;;;;11.73;4.90;;;9.20;99.90;;;;;;4141481;28;20407;-82
2024/02/01 06:00:22;;;;;;;16.48;5.40;;;9.20;99.90;;;;;;4158826;28;20790;-79
2024/02/01 06:02:22;;;;;;;11.25;4.43;;;9.20;99.90;;;;;;4161640;28;20041;-83
2024/02/01 06:04:23;;;;;;;11.95;4.68;;;9.10;99.90;;;;;;4161482;28;20490;-83
2024/02/01 06:06:23;;;;;;;15.15;4.97;;;9.10;99.90;;;;;;4161084;28;20040;-83
2024/02/01 06:08:24;;;;;;;14.15;4.90;;;9.10;99.90;;;;;;4146575;28;20046;-82
2024/02/01 06:10:25;;;;;;;16.17;5.20;;;9.00;99.90;;;;;;4160594;28;20050;-82
2024/02/01 06:12:27;;;;;;;12.38;4.72;;;9.10;99.90;;;;;;4161272;28;20124;-81
2024/02/01 06:14:28;;;;;;;;;;;9.00;99.90;;;;;;4159434;28;20036;-83
2024/02/01 06:16:29;;;;;;;15.65;3.47;;;8.90;99.90;;;;;;4143942;28;20355;-82
2024/02/01 06:18:29;;;;;;;24.05;3.92;;;8.80;99.90;;;;;;4156543;28;20079;-83
2024/02/01 06:20:30;;;;;;;21.60;3.53;;;8.70;99.90;;;;;;4141404;28;20590;-84
2024/02/01 06:22:31;;;;;;;16.48;3.00;;;8.60;99.90;;;;;;4141992;28;20962;-82
2024/02/01 06:24:34;;;;;;;15.15;3.10;;;8.50;99.90;;;;;;4139956;28;20450;-84
2024/02/01 06:26:34;;;;;;;18.63;3.53;;;8.40;99.90;;;;;;4159330;28;20026;-78
2024/02/01 06:28:35;;;;;;;17.65;3.40;;;8.40;99.90;;;;;;4156970;28;20112;-78
2024/02/01 06:30:37;;;;;;;21.80;3.50;;;8.30;99.90;;;;;;4132375;28;20037;-79
2024/02/01 06:32:39;;;;;;;16.08;3.17;;;8.30;99.90;;;;;;4158689;28;20099;-78
2024/02/01 06:34:40;;;;;;;15.75;2.88;;;8.30;99.90;;;;;;4154908;28;20388;-78
2024/02/01 06:36:43;;;;;;;12.23;2.88;;;8.20;99.90;;;;;;4155822;28;20121;-83
2024/02/01 06:41:17;;;;;;;15.98;2.78;;;8.10;99.90;;;;;;4157915;28;20367;-83
2024/02/01 06:43:31;;;;;;;17.80;3.65;;;8.10;99.90;;;;;;4143651;28;20038;-84
2024/02/01 06:45:42;;;;;;;18.65;3.45;;;8.00;99.90;;;;;;4160731;28;20044;-84
2024/02/01 06:47:49;;;;;;;16.15;3.05;;;8.00;99.90;;;;;;4156689;28;20072;-85
2024/02/01 06:49:59;;;;;;;16.58;3.50;;;7.90;99.90;;;;;;4142380;28;20038;-85
2024/02/01 06:54:38;;;;;;;17.15;3.38;;;7.80;99.90;;;;;;4161247;28;20053;-85
2024/02/01 06:57:03;;;;;;;19.95;3.13;;;7.70;99.90;;;;;;4152383;28;20034;-84
2024/02/01 06:59:30;;;;;;;18.80;3.95;;;7.70;99.90;;;;;;4138717;28;20551;-84
2024/02/01 07:01:38;;;;;;;25.08;3.47;;;7.60;99.90;;;;;;4140156;28;20037;-85
2024/02/01 07:03:51;;;;;;;13.65;2.58;;;7.60;99.90;;;;;;4158093;28;20041;-84
2024/02/01 07:08:01;;;;;;;18.80;3.40;;;7.50;99.90;;;;;;4153815;28;20037;-85
2024/02/01 07:10:16;;;;;;;11.00;2.55;;;7.50;99.90;;;;;;4158168;28;20034;-80
2024/02/01 07:12:39;;;;;;;14.98;3.42;;;7.50;99.90;;;;;;4156312;28;20041;-80
2024/02/01 07:14:41;;;;;;;19.92;3.42;;;7.40;99.90;;;;;;4156624;28;20042;-81
2024/02/01 07:16:55;;;;;;;16.35;3.22;;;7.40;99.90;;;;;;4153743;28;20489;-80
2024/02/01 07:22:03;;;;;;;19.77;3.40;;;7.40;99.90;;;;;;4095397;28;20043;-80
2024/02/01 07:24:27;;;;;;;15.43;3.10;;;7.40;99.90;;;;;;4093811;28;20103;-78
2024/02/01 07:26:54;;;;;;;20.42;3.90;;;7.40;99.90;;;;;;4114924;28;20106;-80
2024/02/01 07:59:10;;;;;;;17.75;3.55;;;7.50;99.90;;;;;;4138597;28;20096;-77
2024/02/01 08:01:21;;;;;;;21.77;3.10;;;7.50;99.90;;;;;;4140384;28;20034;-77
2024/02/01 08:07:49;;;;;;;16.40;2.92;;;8.20;99.90;;;;;;4139169;28;20112;-78
2024/02/01 08:09:52;;;;;;;16.13;2.60;;;8.50;99.90;;;;;;4130821;28;20053;-77
2024/02/01 08:11:52;;;;;;;11.40;2.72;;;8.70;99.90;;;;;;4137104;28;20657;-78
2024/02/01 08:13:53;;;;;;;17.65;3.95;;;8.90;99.90;;;;;;4157815;28;20084;-78
2024/02/01 08:15:55;;;;;;;13.23;2.95;;;9.20;99.90;;;;;;4118218;28;20173;-77
2024/02/01 08:17:56;;;;;;;11.52;2.50;;;9.40;99.90;;;;;;4135726;28;20509;-77
2024/02/01 08:19:56;;;;;;;13.95;2.80;;;9.60;99.90;;;;;;4134681;28;20034;-77
2024/02/01 08:22:00;;;;;;;11.63;2.85;;;9.80;99.90;;;;;;4136596;28;20053;-77
2024/02/01 08:24:01;;;;;;;13.10;2.65;;;10.10;99.90;;;;;;4135601;28;20034;-76
2024/02/01 08:26:05;;;;;;;10.75;2.42;;;10.30;99.90;;;;;;4134898;28;20568;-77
2024/02/01 08:28:09;;;;;;;14.10;3.30;;;10.50;99.90;;;;;;4143695;28;20049;-77
2024/02/01 08:30:12;;;;;;;13.68;3.38;;;10.70;99.90;;;;;;4129067;28;20050;-77
2024/02/01 08:32:19;;;;;;;11.30;2.60;;;10.90;99.90;;;;;;4133968;28;20069;-77
2024/02/01 08:34:19;;;;;;;9.50;2.63;;;11.20;99.90;;;;;;4135197;28;20140;-77
2024/02/01 08:36:20;;;;;;;8.90;2.05;;;11.40;99.90;;;;;;4138573;28;20084;-77
2024/02/01 08:38:21;;;;;;;10.68;2.90;;;11.60;99.90;;;;;;4138139;28;20095;-77
2024/02/01 08:40:22;;;;;;;10.48;2.78;;;11.70;99.90;;;;;;4128781;28;20120;-77
2024/02/01 08:42:29;;;;;;;10.40;2.70;;;11.90;99.90;;;;;;4135610;28;20030;-77
2024/02/01 08:44:29;;;;;;;11.55;3.15;;;12.20;99.90;;;;;;4138035;28;20613;-77
2024/02/01 08:46:30;;;;;;;10.02;2.60;;;12.30;99.90;;;;;;4137288;28;20064;-77
2024/02/01 08:48:31;;;;;;;10.70;2.67;;;12.40;99.90;;;;;;4138016;28;20038;-78
2024/02/01 08:50:33;;;;;;;7.43;2.17;;;12.60;99.90;;;;;;4137710;28;20053;-77
2024/02/01 08:52:33;;;;;;;13.23;3.13;;;12.80;99.90;;;;;;4142219;28;20152;-77
2024/02/01 08:54:36;;;;;;;11.10;3.08;;;13.00;99.90;;;;;;4155669;28;20114;-77
2024/02/01 08:56:37;;;;;;;11.90;3.17;;;13.20;99.90;;;;;;4154982;28;20034;-77
2024/02/01 08:58:38;;;;;;;9.32;2.63;;;13.30;99.90;;;;;;4154839;28;20526;-77
2024/02/01 09:00:42;;;;;;;13.43;3.63;;;13.40;99.90;;;;;;4152502;28;20038;-77
2024/02/01 09:02:42;;;;;;;8.48;2.60;;;13.50;99.90;;;;;;4133332;28;20030;-76
2024/02/01 09:04:43;;;;;;;15.18;3.72;;;13.50;99.90;;;;;;4154674;28;20045;-77
2024/02/01 09:06:53;;;;;;;15.15;3.42;;;13.60;99.90;;;;;;4133154;28;20045;-77
2024/02/01 09:08:54;;;;;;;10.82;2.60;;;13.60;99.90;;;;;;4148448;28;20045;-77
2024/02/01 09:10:57;;;;;;;18.33;2.95;;;13.60;99.90;;;;;;4135408;28;20056;-77
2024/02/01 09:12:58;;;;;;;15.70;3.65;;;13.70;99.90;;;;;;4154229;28;20104;-77
2024/02/01 09:14:59;;;;;;;14.15;3.38;;;13.70;99.90;;;;;;4154736;28;20513;-77
2024/02/01 09:17:00;;;;;;;9.50;3.10;;;13.70;99.90;;;;;;4137150;28;20030;-77
2024/02/01 09:19:02;;;;;;;15.27;4.00;;;13.70;99.90;;;;;;4154119;28;20033;-76
2024/02/01 09:21:03;;;;;;;14.23;3.60;;;13.70;99.90;;;;;;4152965;28;20073;-77
2024/02/01 09:23:05;;;;;;;14.18;3.22;;;13.70;99.90;;;;;;4155361;28;20488;-76
2024/02/01 09:25:06;;;;;;;11.93;3.17;;;13.60;99.90;;;;;;4154945;28;20135;-77
2024/02/01 09:27:06;;;;;;;14.25;3.53;;;13.60;99.90;;;;;;4153059;28;20045;-76
2024/02/01 09:29:11;;;;;;;16.20;3.22;;;13.40;99.90;;;;;;4151774;28;20026;-74
2024/02/01 09:31:21;;;;;;;12.63;3.45;;;13.40;99.90;;;;;;4136222;28;20042;-75
2024/02/01 09:33:28;;;;;;;12.05;2.78;;;13.40;99.90;;;;;;4155617;28;20045;-74
2024/02/01 09:35:28;;;;;;;10.90;2.95;;;13.40;99.90;;;;;;4151230;28;20042;-73
2024/02/01 09:37:29;;;;;;;17.55;3.67;;;13.30;99.90;;;;;;4153090;28;20509;-74
2024/02/01 09:39:34;;;;;;;14.00;3.38;;;13.30;99.90;;;;;;4154690;28;20036;-74
2024/02/01 09:41:35;;;;;;;14.75;4.00;;;13.30;99.90;;;;;;4153539;28;20465;-73
2024/02/01 09:43:39;;;;;;;15.35;4.32;;;13.20;99.90;;;;;;4154373;28;20112;-74
2024/02/01 09:45:40;;;;;;;19.17;3.83;;;13.20;99.90;;;;;;4134042;28;20101;-74
2024/02/01 09:47:43;;;;;;;12.60;3.70;;;13.10;99.90;;;;;;4151500;28;20056;-74
2024/02/01 09:49:44;;;;;;;13.95;3.03;;;13.00;99.90;;;;;;4152103;28;20042;-73
2024/02/01 09:51:46;;;;;;;11.80;3.30;;;12.90;99.90;;;;;;4151704;28;20045;-74
2024/02/01 09:53:48;;;;;;;14.40;3.53;;;12.80;99.90;;;;;;4134711;28;20046;-75
2024/02/01 09:55:50;;;;;;;14.93;3.88;;;12.80;99.90;;;;;;4152909;28;20287;-75
2024/02/01 09:57:53;;;;;;;15.85;3.80;;;12.60;99.90;;;;;;4135757;28;20137;-74
2024/02/01 09:59:54;;;;;;;16.85;3.90;;;12.60;99.90;;;;;;4152859;28;20470;-75
2024/02/01 10:01:55;;;;;;;15.73;3.38;;;12.50;99.90;;;;;;4152844;28;20029;-74
2024/02/01 10:03:56;;;;;;;13.63;3.28;;;12.40;99.90;;;;;;4152937;28;20481;-75
2024/02/01 10:05:56;;;;;;;19.33;3.88;;;12.40;99.90;;;;;;4151359;28;20073;-75
2024/02/01 10:07:57;;;;;;;15.38;3.45;;;12.30;99.90;;;;;;4152129;28;20029;-75
2024/02/01 10:10:01;;;;;;;14.82;3.75;;;12.20;99.90;;;;;;4149399;28;20037;-75
2024/02/01 10:12:03;;;;;;;19.35;4.53;;;12.20;99.90;;;;;;4153905;28;20025;-74
2024/02/01 10:14:03;;;;;;;19.70;3.97;;;12.10;99.90;;;;;;4151665;28;20103;-75
2024/02/01 10:16:12;;;;;;;17.33;3.92;;;12.00;99.90;;;;;;4152689;28;20041;-75
2024/02/01 10:18:20;;;;;;;22.90;4.95;;;12.00;99.90;;;;;;4151181;28;20050;-75
2024/02/01 10:20:35;;;;;;;19.58;3.50;;;11.90;99.90;;;;;;4135707;28;20044;-75
2024/02/01 10:22:36;;;;;;;15.80;4.05;;;11.80;99.90;;;;;;4152716;28;20562;-75
2024/02/01 10:24:48;;;;;;;17.17;3.70;;;11.80;99.90;;;;;;4155318;28;20033;-74
2024/02/01 10:26:52;;;;;;;18.75;3.50;;;11.80;99.90;;;;;;4136432;28;20034;-75
2024/02/01 10:28:53;;;;;;;21.73;3.85;;;11.70;99.90;;;;;;4153886;28;20128;-75
2024/02/01 10:30:56;;;;;;;9.00;2.90;;;11.70;99.90;;;;;;4135644;28;20546;-74
2024/02/01 10:33:03;;;;;;;18.95;4.15;;;11.70;99.90;;;;;;4142690;28;20041;-74
2024/02/01 10:35:04;;;;;;;19.65;4.32;;;11.60;99.90;;;;;;4152414;28;20464;-74
2024/02/01 10:37:08;;;;;;;10.00;3.13;;;11.60;99.90;;;;;;4133109;28;20424;-74
2024/02/01 10:39:14;;;;;;;;;;;11.60;99.90;;;;;;4152708;28;20114;-74
2024/02/01 10:41:24;;;;;;;16.40;3.78;;;11.50;99.90;;;;;;4152554;28;20327;-74
2024/02/01 10:43:27;;;;;;;15.35;3.72;;;11.50;99.90;;;;;;4155202;28;20045;-74
2024/02/01 10:45:34;;;;;;;22.00;4.43;;;11.50;99.90;;;;;;4151042;28;20569;-74
2024/02/01 10:47:42;;;;;;;15.50;3.65;;;11.50;99.90;;;;;;4154607;28;20096;-75
2024/02/01 10:49:52;;;;;;;27.20;4.38;;;11.40;99.90;;;;;;4155487;28;20069;-75
2024/02/01 10:51:55;;;;;;;22.02;5.22;;;11.40;99.90;;;;;;4154391;28;20091;-76
2024/02/01 10:54:01;;;;;;;16.27;3.33;;;11.30;99.90;;;;;;4153894;28;20034;-74
2024/02/01 10:56:02;;;;;;;14.93;3.70;;;11.30;99.90;;;;;;4154891;28;20029;-74
2024/02/01 10:58:04;;;;;;;27.25;5.00;;;11.20;99.90;;;;;;4136154;28;21004;-75
2024/02/01 11:00:05;;;;;;;17.35;3.58;;;11.20;99.90;;;;;;4153488;28;20141;-74
2024/02/01 11:02:06;;;;;;;13.65;3.67;;;11.10;99.90;;;;;;4154822;28;20022;-75
2024/02/01 11:04:10;;;;;;;17.30;3.92;;;11.10;99.90;;;;;;4154915;28;20069;-74
2024/02/01 11:06:10;;;;;;;15.20;3.95;;;11.10;99.90;;;;;;4153408;28;20033;-78
2024/02/01 11:08:17;;;;;;;20.45;4.13;;;11.10;99.90;;;;;;4140632;28;20034;-78
2024/02/01 11:10:23;;;;;;;27.67;5.20;;;11.10;99.90;;;;;;4137081;28;20069;-78
2024/02/01 11:12:24;;;;;;;13.77;3.47;;;11.00;99.90;;;;;;4136543;28;20026;-78
2024/02/01 11:14:26;;;;;;;18.85;5.05;;;10.90;99.90;;;;;;4138177;28;20040;-77
2024/02/01 11:16:39;;;;;;;22.08;4.93;;;10.90;99.90;;;;;;4153897;28;20132;-77
2024/02/01 11:18:54;;;;;;;26.85;4.90;;;10.80;99.90;;;;;;4151740;28;20053;-77
2024/02/01 11:20:56;;;;;;;25.50;5.32;;;10.70;99.90;;;;;;4155397;28;20041;-79
2024/02/01 11:23:05;;;;;;;25.02;6.07;;;10.60;99.90;;;;;;4151108;28;20095;-77
2024/02/01 11:25:06;;;;;;;24.25;4.25;;;10.60;99.90;;;;;;4154113;28;20100;-76